Kelly, Louisiana
Current Conditions -  °F | °C
As of 2:53 PM on Sunday 23 Nov 2014 (Local Time) from KMLU Reporting Station
Broken Clouds Broken Clouds  
Wind Chill: 68°   Ceiling: 2400
Heat Index: 68°   Visibility: 10mi
Dew Point: 61°   Wind: 14mph
Humidity: 78%   Direction: 210°SSW
Pressure: 29.47"   Gusts: 22mph
Location:  31.98°N, 92.18°W
Report Text: KMLU 232053Z 21012G19KT 10SM BKN024 20/16 A2947 RMK AO2 SLP977 60001 T02000161 56014
Loading
Personal Weather Stations






























Interactive Weather Map New forecast layout! Learn more

10-Day Weather Forecast

Advertisements
Track Severe Weather on mobile